ADDS METAR Data INFO
IDs: Format: Raw Decoded Include TAF

Data at: 1809 UTC 18 Feb 2018

KOLU 181756Z AUTO 19021G30KT 10SM CLR 08/M01 A2961 RMK AO2 PK WND 19032/1721 SLP039 T00831011 10083 20017 56031
KOLU 181656Z AUTO 19025G31KT 10SM CLR 07/M02 A2965 RMK AO2 PK WND 20031/1651 SLP053 T00671017
KOLU 181556Z AUTO 18020G30KT 10SM CLR 06/M03 A2966 RMK AO2 PK WND 18033/1546 SLP057 T00561028
KOLU 181456Z AUTO 18018G26KT 10SM CLR 04/M04 A2971 RMK AO2 PK WND 18030/1406 PRESFR SLP075 T00441039 56030
KOLU 181356Z AUTO 18016G26KT 10SM CLR 04/M04 A2974 RMK AO2 PK WND 17026/1352 SLP086 T00441044
KOLU 181256Z AUTO 17015KT 10SM CLR 02/M05 A2976 RMK AO2 SLP093 T00221050 FZRANO
KOLU 181156Z AUTO 16015KT 10SM CLR 02/M06 A2980 RMK AO2 SLP106 T00171061 10017 21011 58030 FZRANO
KOLU 181056Z AUTO 17013KT 10SM CLR 01/M06 A2985 RMK AO2 SLP122 T00061061 FZRANO
KOLU 180956Z AUTO 16012KT 10SM CLR 01/M06 A2987 RMK AO2 SLP127 T00061056 FZRANO
KOLU 180856Z AUTO 15014KT 10SM CLR 00/M04 A2990 RMK AO2 PRESFR SLP136 T00001044 58041 FZRANO
KOLU 180756Z AUTO 15015KT 10SM CLR 00/M04 A2995 RMK AO2 SLP154 T00001039 FZRANO
KOLU 180656Z AUTO 15010KT 10SM CLR M01/M03 A2998 RMK AO2 SLP167 T10061033 FZRANO
KOLU 180556Z AUTO 14007KT 10SM CLR M01/M03 A3002 RMK AO2 SLP181 T10111033 10028 21028 400501039 58024 FZRANO
KOLU 180456Z AUTO 12009KT 10SM CLR M01/M03 A3005 RMK AO2 SLP190 T10061028 FZRANO
KOLU 180356Z AUTO 13005KT 10SM CLR M01/M03 A3009 RMK AO2 SLP205 T10061028 FZRANO
KOLU 180256Z AUTO 10005KT 10SM CLR M03/M04 A3009 RMK AO2 SLP210 T10281039 58006 FZRANO
KOLU 180156Z AUTO 11004KT 10SM CLR M02/M03 A3011 RMK AO2 SLP217 T10221033 FZRANO
KOLU 180056Z AUTO 11004KT 10SM CLR 00/M03 A3012 RMK AO2 SLP219 T00001028 FZRANO
KOLU 172356Z AUTO 04003KT 10SM CLR 03/M02 A3011 RMK AO2 SLP215 T00281022 10050 20022 51013
KOLU 172256Z AUTO 35005KT 10SM CLR 04/M02 A3010 RMK AO2 SLP210 T00391017
KOLU 172156Z AUTO 33007KT 10SM CLR 05/M03 A3009 RMK AO2 SLP207 T00501028
KOLU 172056Z AUTO 31011KT 10SM CLR 05/M03 A3007 RMK AO2 SLP199 T00501028 53012
KOLU 171956Z AUTO 31011KT 10SM CLR 04/M03 A3005 RMK AO2 SLP193 T00441033
KOLU 171856Z AUTO 30011KT 10SM CLR 04/M03 A3005 RMK AO2 SLP190 T00441033
KOLU 171756Z AUTO 29009KT 10SM CLR 04/M03 A3004 RMK AO2 SLP186 T00391028 10039 21028 53023
KOLU 171656Z AUTO 31012KT 10SM CLR 03/M02 A3001 RMK AO2 SLP179 T00281022
KOLU 171556Z AUTO 32010KT 10SM CLR 01/M04 A2998 RMK AO2 SLP168 T00061044 FZRANO
KOLU 171456Z AUTO 28008KT 10SM CLR M02/M06 A2996 RMK AO2 SLP166 T10171056 53028 FZRANO TSNO
KOLU 171356Z AUTO 27008KT 10SM CLR M02/M07 A2992 RMK AO2 SLP151 T10221067 FZRANO
KOLU 171256Z AUTO 25009KT 10SM SCT100 M03/M07 A2989 RMK AO2 SLP139 T10281072 FZRANO
KOLU 171156Z AUTO 22008KT 10SM FEW049 BKN110 M03/M08 A2988 RMK AO2 SLP136 T10281078 11022 21039 55013 FZRANO
KOLU 171056Z AUTO 20008KT 10SM FEW065 M03/M08 A2987 RMK AO2 SLP135 T10331083 FZRANO
KOLU 170956Z AUTO 18008KT 10SM CLR M04/M09 A2988 RMK AO2 SLP138 T10391089 FZRANO
KOLU 170856Z AUTO 17010KT 10SM CLR M03/M09 A2992 RMK AO2 SLP149 T10331089 56033 FZRANO TSNO
KOLU 170756Z AUTO 18012KT 10SM CLR M02/M09 A2995 RMK AO2 SLP162 T10221089 FZRANO
KOLU 170656Z AUTO 19009KT 10SM CLR M02/M09 A2998 RMK AO2 SLP173 T10221089 FZRANO